Time;durP1;ratioP1;P1;durP2;ratioP2;P2;SDS_P1;SDS_P2;PMS_P1;PMS_P2;Temp;Humidity;BMP_temperature;BMP_pressure;BME280_temperature;BME280_humidity;BME280_pressure;Samples;Min_cycle;Max_cycle;Signal;HPM_P1;HPM_P2
2023/09/23 00:00:59;;;;;;;6.10;4.70;;;12.30;99.90;;;;;;7303978;32;20220;-55
2023/09/23 00:05:05;;;;;;;6.28;4.07;;;12.20;99.90;;;;;;7299617;32;20182;-55
2023/09/23 00:09:08;;;;;;;7.22;3.72;;;12.20;99.90;;;;;;7301458;32;20134;-55
2023/09/23 00:13:09;;;;;;;5.32;3.50;;;12.20;99.90;;;;;;7311199;32;20164;-55
2023/09/23 00:17:11;;;;;;;3.72;3.20;;;12.10;99.90;;;;;;7297285;32;20553;-55
2023/09/23 00:21:13;;;;;;;3.95;2.42;;;12.10;99.90;;;;;;7307535;32;20116;-55
2023/09/23 00:25:18;;;;;;;3.08;2.28;;;12.10;99.90;;;;;;7310268;32;20526;-55
2023/09/23 00:29:24;;;;;;;3.03;2.10;;;12.10;99.90;;;;;;7302930;32;20116;-56
2023/09/23 00:33:26;;;;;;;2.53;1.52;;;12.10;99.90;;;;;;7305143;32;20587;-56
2023/09/23 00:37:30;;;;;;;2.60;1.60;;;12.10;99.90;;;;;;7297044;32;20138;-56
2023/09/23 00:41:32;;;;;;;3.25;1.77;;;12.10;99.90;;;;;;7303147;32;20532;-55
2023/09/23 00:45:34;;;;;;;3.50;1.50;;;12.10;99.90;;;;;;7303656;32;20138;-56
2023/09/23 00:49:40;;;;;;;3.35;1.75;;;12.10;99.90;;;;;;7302839;32;20282;-55
2023/09/23 00:53:42;;;;;;;1.73;1.40;;;12.10;99.90;;;;;;7305612;32;20301;-56
2023/09/23 00:57:59;;;;;;;3.12;1.12;;;12.00;99.90;;;;;;7305882;32;20520;-55
2023/09/23 01:02:02;;;;;;;2.55;1.42;;;12.00;99.90;;;;;;7307474;32;20164;-55
2023/09/23 01:06:15;;;;;;;2.08;1.35;;;12.00;99.90;;;;;;7295698;32;20104;-55
2023/09/23 01:10:18;;;;;;;2.95;1.98;;;12.00;99.90;;;;;;7300003;32;20111;-56
2023/09/23 01:14:21;;;;;;;4.62;1.95;;;11.90;99.90;;;;;;7308146;32;20126;-55
2023/09/23 01:18:23;;;;;;;2.62;2.08;;;11.90;99.90;;;;;;7301136;32;20165;-55
2023/09/23 01:22:25;;;;;;;2.97;2.03;;;11.90;99.90;;;;;;7287344;32;20150;-55
2023/09/23 01:26:27;;;;;;;3.03;2.15;;;11.80;99.90;;;;;;7303395;32;20104;-56
2023/09/23 01:30:29;;;;;;;3.72;2.12;;;11.70;99.90;;;;;;7304528;32;20194;-55
2023/09/23 01:34:30;;;;;;;3.17;2.05;;;11.60;99.90;;;;;;7308278;32;20112;-55
2023/09/23 01:38:32;;;;;;;2.53;1.90;;;11.70;99.90;;;;;;7295961;32;20177;-56
2023/09/23 01:42:35;;;;;;;4.20;2.45;;;11.60;99.90;;;;;;7302000;32;20108;-56
2023/09/23 01:46:37;;;;;;;4.97;2.67;;;11.50;99.90;;;;;;7299145;32;20138;-56
2023/09/23 01:50:41;;;;;;;4.65;2.22;;;11.50;99.90;;;;;;7305689;32;20124;-57
2023/09/23 01:54:47;;;;;;;5.65;2.20;;;11.40;99.90;;;;;;7320119;32;20130;-56
2023/09/23 01:58:49;;;;;;;4.93;2.70;;;11.30;99.90;;;;;;7305247;32;20119;-56
2023/09/23 02:02:55;;;;;;;4.45;3.12;;;11.30;99.90;;;;;;7309493;32;20128;-57
2023/09/23 02:06:57;;;;;;;4.87;2.90;;;11.40;99.90;;;;;;7302096;32;20133;-56
2023/09/23 02:10:59;;;;;;;6.72;3.28;;;11.40;99.90;;;;;;7308327;32;20138;-56
2023/09/23 02:15:00;;;;;;;4.80;3.60;;;11.40;99.90;;;;;;7307525;32;20168;-56
2023/09/23 02:19:03;;;;;;;4.30;2.90;;;11.50;99.90;;;;;;7290277;32;20103;-56
2023/09/23 02:23:05;;;;;;;4.10;2.97;;;11.50;99.90;;;;;;7305200;32;20135;-56
2023/09/23 02:27:08;;;;;;;6.65;2.97;;;11.40;99.90;;;;;;7304091;32;20172;-56
2023/09/23 02:31:10;;;;;;;6.80;3.20;;;11.40;99.90;;;;;;7307667;32;20131;-57
2023/09/23 02:35:15;;;;;;;7.65;3.58;;;11.40;99.90;;;;;;7302406;32;20538;-56
2023/09/23 02:39:20;;;;;;;4.95;2.72;;;11.30;99.90;;;;;;7303257;32;20207;-56
2023/09/23 02:43:21;;;;;;;5.28;3.10;;;11.20;99.90;;;;;;7291309;32;20134;-56
2023/09/23 02:47:23;;;;;;;3.37;2.85;;;11.10;99.90;;;;;;7301183;32;20126;-57
2023/09/23 02:51:26;;;;;;;4.72;3.10;;;11.10;99.90;;;;;;7308872;32;20222;-57
2023/09/23 02:55:28;;;;;;;6.20;3.40;;;11.10;99.90;;;;;;7308050;32;20199;-57
2023/09/23 02:59:31;;;;;;;4.55;3.10;;;11.10;99.90;;;;;;7297133;32;20502;-57
2023/09/23 03:03:33;;;;;;;4.93;3.03;;;11.10;99.90;;;;;;7307088;32;20139;-55
2023/09/23 03:07:36;;;;;;;7.30;2.92;;;11.10;99.90;;;;;;7305170;32;20134;-56
2023/09/23 03:11:47;;;;;;;3.70;2.60;;;11.10;99.90;;;;;;7302732;32;20506;-56
2023/09/23 03:16:08;;;;;;;6.18;2.70;;;11.00;99.90;;;;;;7304673;32;20119;-57
2023/09/23 03:20:11;;;;;;;5.70;2.70;;;11.10;99.90;;;;;;7287658;32;20127;-56
2023/09/23 03:24:15;;;;;;;7.40;3.55;;;11.00;99.90;;;;;;7306244;32;20247;-56
2023/09/23 03:28:17;;;;;;;6.43;3.10;;;11.10;99.90;;;;;;7305393;32;20194;-56
2023/09/23 03:32:20;;;;;;;4.90;3.05;;;11.20;99.90;;;;;;7310563;32;20732;-56
2023/09/23 03:36:24;;;;;;;5.95;3.00;;;11.10;99.90;;;;;;7305539;32;20131;-56
2023/09/23 03:40:27;;;;;;;6.75;2.83;;;11.10;99.90;;;;;;7308547;32;20696;-55
2023/09/23 03:44:29;;;;;;;3.90;2.47;;;11.10;99.90;;;;;;7315406;32;20552;-56
2023/09/23 03:48:31;;;;;;;4.68;2.33;;;11.10;99.90;;;;;;7301976;32;20556;-56
2023/09/23 03:52:33;;;;;;;6.12;2.12;;;11.10;99.90;;;;;;7304932;32;20119;-56
2023/09/23 03:56:35;;;;;;;5.35;2.45;;;11.10;99.90;;;;;;7301797;32;20562;-56
2023/09/23 04:00:37;;;;;;;6.35;2.33;;;11.10;99.90;;;;;;7306145;32;20261;-56
2023/09/23 04:04:39;;;;;;;5.62;1.83;;;11.00;99.90;;;;;;7303673;32;20139;-56
2023/09/23 04:08:40;;;;;;;5.65;2.40;;;11.00;99.90;;;;;;7300632;32;20214;-57
2023/09/23 04:12:42;;;;;;;5.05;2.25;;;11.00;99.90;;;;;;7307767;32;20529;-56
2023/09/23 04:16:44;;;;;;;3.75;2.03;;;11.00;99.90;;;;;;7303201;32;20120;-57
2023/09/23 04:20:48;;;;;;;4.28;1.92;;;11.00;99.90;;;;;;7307381;32;20115;-56
2023/09/23 04:24:50;;;;;;;5.32;1.83;;;10.80;99.90;;;;;;7309156;32;20193;-57
2023/09/23 04:28:52;;;;;;;4.43;1.77;;;10.90;99.90;;;;;;7302928;32;20104;-56
2023/09/23 04:32:55;;;;;;;4.35;1.50;;;10.80;99.90;;;;;;7306947;32;20111;-57
2023/09/23 04:36:57;;;;;;;5.22;1.60;;;10.90;99.90;;;;;;7306539;32;20225;-56
2023/09/23 04:41:00;;;;;;;4.15;1.25;;;11.00;99.90;;;;;;7307175;32;20477;-56
2023/09/23 04:45:03;;;;;;;6.72;1.35;;;10.90;99.90;;;;;;7304755;32;20108;-55
2023/09/23 04:49:04;;;;;;;3.72;1.23;;;10.90;99.90;;;;;;7301037;32;20127;-56
2023/09/23 04:53:07;;;;;;;7.80;1.50;;;10.90;99.90;;;;;;7310416;32;20119;-57
2023/09/23 04:57:09;;;;;;;2.97;1.17;;;10.80;99.90;;;;;;7299238;32;20120;-56
2023/09/23 05:01:12;;;;;;;6.40;1.40;;;10.80;99.90;;;;;;7298295;32;20136;-56
2023/09/23 05:05:13;;;;;;;5.87;1.75;;;10.80;99.90;;;;;;7299558;32;20231;-58
2023/09/23 05:09:16;;;;;;;5.62;1.37;;;10.80;99.90;;;;;;7297088;32;20137;-57
2023/09/23 05:13:18;;;;;;;5.72;1.87;;;10.90;99.90;;;;;;7297294;32;20129;-55
2023/09/23 05:17:22;;;;;;;3.25;1.30;;;10.90;99.90;;;;;;7298297;32;20174;-56
2023/09/23 05:21:24;;;;;;;3.62;1.20;;;10.90;99.90;;;;;;7292379;32;20112;-58
2023/09/23 05:25:27;;;;;;;2.50;1.00;;;10.90;99.90;;;;;;7300435;32;20268;-57
2023/09/23 05:29:28;;;;;;;4.10;1.08;;;10.90;99.90;;;;;;7294290;32;20131;-55
2023/09/23 05:33:31;;;;;;;9.02;1.30;;;10.80;99.90;;;;;;7298538;32;20112;-56
2023/09/23 05:37:32;;;;;;;3.58;1.00;;;10.90;99.90;;;;;;7294620;32;20545;-56
2023/09/23 05:41:34;;;;;;;4.87;1.50;;;10.90;99.90;;;;;;7293983;32;20108;-56
2023/09/23 05:45:37;;;;;;;3.72;1.20;;;11.00;99.90;;;;;;7293597;32;20476;-56
2023/09/23 05:49:38;;;;;;;4.90;1.40;;;11.00;99.90;;;;;;7303921;32;20108;-57
2023/09/23 05:53:41;;;;;;;10.02;1.45;;;11.00;99.90;;;;;;7295565;32;20218;-55
2023/09/23 05:57:42;;;;;;;2.25;1.23;;;11.00;99.90;;;;;;7297878;32;20528;-56
2023/09/23 06:01:44;;;;;;;5.12;1.48;;;11.00;99.90;;;;;;7296817;32;20124;-57
2023/09/23 06:05:46;;;;;;;4.62;1.48;;;11.10;99.90;;;;;;7294698;32;20496;-56
2023/09/23 06:09:48;;;;;;;4.75;1.40;;;11.10;99.90;;;;;;7299361;32;20459;-56
2023/09/23 06:13:49;;;;;;;5.43;1.37;;;11.10;99.90;;;;;;7296642;32;20502;-55
2023/09/23 06:17:51;;;;;;;3.17;1.05;;;11.20;99.90;;;;;;7306310;32;20132;-56
2023/09/23 06:21:54;;;;;;;4.90;1.40;;;11.40;99.90;;;;;;7298570;32;20892;-55
2023/09/23 06:25:57;;;;;;;5.15;1.35;;;11.50;99.90;;;;;;7302585;32;20112;-56
2023/09/23 06:29:59;;;;;;;5.45;1.50;;;11.40;99.90;;;;;;7305308;32;20111;-55
2023/09/23 06:34:01;;;;;;;3.08;1.30;;;11.50;99.90;;;;;;7307677;32;20231;-57
2023/09/23 06:38:03;;;;;;;7.45;1.17;;;11.60;99.90;;;;;;7302931;32;20192;-57
2023/09/23 06:42:05;;;;;;;4.32;1.30;;;11.70;99.90;;;;;;7304033;32;20679;-57
2023/09/23 06:46:07;;;;;;;6.68;2.00;;;11.80;99.90;;;;;;7306213;32;20217;-57
2023/09/23 06:50:09;;;;;;;8.18;1.90;;;11.90;99.90;;;;;;7292273;32;20128;-57
2023/09/23 06:54:11;;;;;;;5.35;2.00;;;11.90;99.90;;;;;;7307844;32;20175;-57
2023/09/23 06:58:13;;;;;;;9.50;1.40;;;11.90;99.90;;;;;;7304883;32;20130;-57
2023/09/23 07:02:15;;;;;;;7.82;1.40;;;12.00;99.90;;;;;;7303388;32;20123;-58
2023/09/23 07:06:16;;;;;;;4.37;1.20;;;12.10;99.90;;;;;;7301552;32;20514;-57
2023/09/23 07:10:18;;;;;;;6.22;1.08;;;12.20;99.90;;;;;;7303518;32;20142;-58
2023/09/23 07:14:20;;;;;;;4.30;1.70;;;12.20;99.90;;;;;;7306823;32;20151;-57
2023/09/23 07:18:22;;;;;;;5.47;1.17;;;12.40;99.90;;;;;;7300995;32;20194;-58
2023/09/23 07:22:24;;;;;;;7.93;2.03;;;12.50;99.90;;;;;;7308808;32;20526;-57
2023/09/23 07:26:25;;;;;;;3.47;1.20;;;12.70;99.90;;;;;;7305207;32;20521;-57
2023/09/23 07:30:27;;;;;;;6.30;1.15;;;12.70;99.90;;;;;;7302514;32;20199;-58
2023/09/23 07:34:29;;;;;;;3.75;1.20;;;12.80;99.90;;;;;;7300980;32;20376;-56
2023/09/23 07:38:31;;;;;;;8.10;1.35;;;12.80;99.90;;;;;;7303815;32;20192;-63
2023/09/23 07:42:33;;;;;;;4.45;1.20;;;12.90;99.90;;;;;;7306916;32;20127;-63
2023/09/23 07:46:34;;;;;;;3.62;1.25;;;13.10;99.90;;;;;;7300946;32;20209;-63
2023/09/23 07:50:36;;;;;;;5.50;1.00;;;13.30;99.90;;;;;;7299591;32;20165;-63
2023/09/23 07:54:41;;;;;;;5.05;1.23;;;13.30;99.90;;;;;;7308923;32;20462;-64
2023/09/23 07:58:43;;;;;;;5.68;1.15;;;13.40;99.90;;;;;;7301574;32;20136;-64
2023/09/23 08:02:44;;;;;;;3.47;1.08;;;13.50;99.90;;;;;;7304412;32;20219;-65
2023/09/23 08:06:46;;;;;;;4.85;1.20;;;13.60;99.90;;;;;;7301319;32;20115;-63
2023/09/23 08:10:49;;;;;;;4.82;1.30;;;13.70;99.90;;;;;;7301144;32;20221;-63
2023/09/23 08:14:51;;;;;;;5.35;1.12;;;13.80;99.90;;;;;;7294915;32;20169;-64
2023/09/23 08:18:53;;;;;;;4.50;1.40;;;13.90;99.90;;;;;;7308836;32;20168;-64
2023/09/23 08:22:55;;;;;;;6.00;1.50;;;14.00;99.90;;;;;;7303633;32;20292;-57
2023/09/23 08:27:03;;;;;;;6.47;1.40;;;14.10;99.90;;;;;;7303986;32;20231;-57
2023/09/23 08:31:05;;;;;;;6.45;1.70;;;14.20;99.90;;;;;;7302883;32;20212;-57
2023/09/23 08:35:07;;;;;;;8.68;1.48;;;14.10;99.90;;;;;;7303880;32;20112;-56
2023/09/23 08:39:09;;;;;;;5.00;1.40;;;14.20;99.90;;;;;;7302801;32;20137;-58
2023/09/23 08:43:11;;;;;;;4.35;1.40;;;14.30;99.90;;;;;;7301731;32;20511;-56
2023/09/23 08:47:13;;;;;;;3.95;1.25;;;14.50;99.90;;;;;;7300648;32;20124;-56
2023/09/23 08:51:22;;;;;;;6.62;1.80;;;14.70;99.90;;;;;;7304834;32;20181;-57
2023/09/23 08:55:25;;;;;;;5.57;1.75;;;14.90;99.90;;;;;;7300946;32;20162;-58
2023/09/23 08:59:27;;;;;;;6.18;1.70;;;14.90;99.90;;;;;;7304884;32;20462;-57
2023/09/23 09:03:30;;;;;;;4.72;2.10;;;14.80;99.90;;;;;;7300508;32;20119;-58
2023/09/23 09:07:33;;;;;;;4.03;1.37;;;14.80;99.90;;;;;;7292349;32;20174;-56
2023/09/23 09:11:34;;;;;;;4.28;1.67;;;14.70;99.90;;;;;;7305137;32;20226;-56
2023/09/23 09:15:37;;;;;;;5.30;2.00;;;14.50;99.90;;;;;;7303428;32;20139;-57
2023/09/23 09:19:39;;;;;;;4.68;1.75;;;14.40;99.90;;;;;;7308487;32;20297;-57
2023/09/23 09:23:41;;;;;;;5.60;1.70;;;14.40;99.90;;;;;;7288242;32;20115;-56
2023/09/23 09:27:44;;;;;;;4.70;1.40;;;14.50;99.90;;;;;;7300172;32;20127;-55
2023/09/23 09:31:51;;;;;;;5.60;1.42;;;14.60;99.90;;;;;;7299546;32;20123;-57
2023/09/23 09:35:56;;;;;;;3.58;1.10;;;14.80;99.90;;;;;;7299411;32;20162;-56
2023/09/23 09:40:00;;;;;;;2.25;0.90;;;15.30;99.90;;;;;;7299229;32;20312;-57
2023/09/23 09:44:04;;;;;;;5.62;1.00;;;16.30;99.90;;;;;;7298741;32;20145;-56
2023/09/23 09:48:08;;;;;;;5.30;1.30;;;16.50;99.90;;;;;;7293070;32;20149;-56
2023/09/23 09:52:13;;;;;;;5.97;1.40;;;16.00;99.90;;;;;;7299332;32;20131;-56
2023/09/23 09:56:16;;;;;;;4.85;1.40;;;15.60;99.90;;;;;;7299090;32;20310;-57
2023/09/23 10:00:27;;;;;;;4.70;1.27;;;15.80;99.90;;;;;;7286758;32;20214;-56
2023/09/23 10:04:31;;;;;;;2.15;1.10;;;16.10;99.90;;;;;;7297670;32;20116;-56
2023/09/23 10:08:38;;;;;;;5.55;1.37;;;16.00;99.90;;;;;;7302528;32;20124;-56
2023/09/23 10:12:48;;;;;;;3.10;0.90;;;16.20;99.90;;;;;;7301222;32;20104;-56
2023/09/23 10:16:52;;;;;;;2.78;0.80;;;16.40;99.90;;;;;;7292664;32;20139;-56
2023/09/23 10:20:57;;;;;;;3.60;0.90;;;16.40;99.90;;;;;;7310665;32;20131;-53
2023/09/23 10:25:04;;;;;;;3.15;0.88;;;16.40;99.90;;;;;;7303635;32;20123;-56
2023/09/23 10:29:06;;;;;;;;;;;16.40;99.90;;;;;;7296213;32;20175;-56
2023/09/23 10:33:10;;;;;;;3.22;0.98;;;16.20;99.90;;;;;;7311906;32;20086;-56
2023/09/23 10:37:14;;;;;;;5.72;1.10;;;16.10;99.90;;;;;;7292038;32;20104;-56
2023/09/23 10:41:17;;;;;;;4.87;1.27;;;16.40;99.90;;;;;;7290712;32;20130;-56
2023/09/23 10:45:22;;;;;;;6.28;1.20;;;16.30;99.90;;;;;;7295256;32;20242;-56
2023/09/23 10:49:24;;;;;;;4.53;1.30;;;16.30;99.90;;;;;;7303035;32;20779;-56
2023/09/23 10:53:29;;;;;;;3.28;0.90;;;16.20;99.90;;;;;;7293818;32;20226;-56
2023/09/23 10:57:31;;;;;;;4.97;0.98;;;16.10;99.90;;;;;;7298179;32;20108;-55
2023/09/23 11:01:33;;;;;;;4.05;1.25;;;16.00;99.90;;;;;;7295128;32;20199;-56
2023/09/23 11:05:39;;;;;;;3.17;0.85;;;15.90;99.90;;;;;;7289807;32;20103;-56
2023/09/23 11:09:48;;;;;;;2.62;0.80;;;16.20;99.90;;;;;;7305063;32;20226;-56
2023/09/23 11:13:49;;;;;;;2.45;0.82;;;16.10;99.90;;;;;;7291389;32;23106;-56
2023/09/23 11:17:55;;;;;;;4.90;1.10;;;16.00;99.90;;;;;;7297388;32;20223;-56
2023/09/23 11:21:58;;;;;;;3.28;0.77;;;16.50;99.90;;;;;;7293660;32;20174;-55
2023/09/23 11:26:00;;;;;;;2.15;0.70;;;16.40;99.90;;;;;;7305960;32;20142;-56
2023/09/23 11:30:04;;;;;;;4.37;0.90;;;16.30;99.90;;;;;;7307037;32;20120;-56
2023/09/23 11:34:07;;;;;;;1.98;0.60;;;16.10;99.90;;;;;;7295259;32;20108;-56
2023/09/23 11:38:10;;;;;;;2.37;0.82;;;16.20;99.90;;;;;;7307902;32;20238;-55
2023/09/23 11:42:11;;;;;;;3.35;0.93;;;16.30;99.90;;;;;;7306348;32;20446;-55
2023/09/23 11:46:14;;;;;;;4.12;0.68;;;16.70;99.90;;;;;;7307748;32;20119;-57
2023/09/23 11:50:16;;;;;;;1.83;0.70;;;16.90;99.90;;;;;;7311807;32;20521;-57
2023/09/23 11:54:18;;;;;;;3.53;0.70;;;16.90;99.90;;;;;;7309352;32;20691;-56
2023/09/23 11:58:20;;;;;;;2.62;0.65;;;16.80;99.90;;;;;;7310052;32;20346;-56
2023/09/23 12:02:23;;;;;;;4.50;0.80;;;16.90;99.90;;;;;;7278769;32;20473;-56
2023/09/23 12:06:25;;;;;;;5.78;0.80;;;16.70;99.90;;;;;;7307457;32;20123;-55
2023/09/23 12:10:29;;;;;;;3.20;0.73;;;16.80;99.90;;;;;;7302987;32;20167;-56
2023/09/23 12:14:30;;;;;;;3.50;0.90;;;16.70;99.90;;;;;;7308967;32;20189;-56
2023/09/23 12:18:32;;;;;;;2.75;0.73;;;16.50;99.90;;;;;;7301709;32;20237;-56
2023/09/23 12:22:34;;;;;;;3.83;0.95;;;16.20;99.90;;;;;;7306660;32;20150;-56
2023/09/23 12:26:36;;;;;;;3.05;0.93;;;16.30;99.90;;;;;;7310145;32;20158;-56
2023/09/23 12:30:37;;;;;;;5.03;0.90;;;16.30;99.90;;;;;;7310278;32;20101;-56
2023/09/23 12:34:39;;;;;;;2.08;0.80;;;16.40;99.90;;;;;;7307186;32;20482;-56
2023/09/23 12:38:41;;;;;;;3.08;1.05;;;16.70;99.90;;;;;;7292522;32;20158;-56
2023/09/23 12:42:43;;;;;;;2.12;0.82;;;17.00;99.90;;;;;;7308741;32;20167;-56
2023/09/23 12:46:45;;;;;;;3.95;0.90;;;17.20;99.90;;;;;;7303945;32;20345;-56
2023/09/23 12:50:46;;;;;;;1.30;0.68;;;17.30;99.90;;;;;;7295080;32;20439;-56
2023/09/23 12:54:48;;;;;;;6.50;0.90;;;17.10;99.90;;;;;;7292009;32;20211;-57
2023/09/23 12:58:50;;;;;;;2.00;1.00;;;17.00;99.90;;;;;;7284696;32;20355;-56
2023/09/23 13:02:52;;;;;;;4.75;1.00;;;16.90;99.90;;;;;;7280481;32;20104;-56
2023/09/23 13:06:54;;;;;;;3.60;1.08;;;17.00;99.90;;;;;;7303603;32;20146;-56
2023/09/23 13:10:56;;;;;;;5.25;1.17;;;16.90;99.90;;;;;;7301947;32;20115;-57
2023/09/23 13:14:58;;;;;;;5.57;1.05;;;16.90;99.90;;;;;;7305181;32;20455;-56
2023/09/23 13:19:00;;;;;;;2.42;0.88;;;17.10;99.90;;;;;;7294167;32;20104;-56
2023/09/23 13:23:02;;;;;;;2.78;1.00;;;17.30;99.90;;;;;;7304140;32;22016;-56
2023/09/23 13:27:05;;;;;;;3.90;1.12;;;17.10;99.90;;;;;;7288062;32;20302;-57
2023/09/23 13:31:07;;;;;;;2.50;1.00;;;17.30;99.90;;;;;;7281855;32;20160;-57
2023/09/23 13:35:09;;;;;;;4.70;1.12;;;17.50;99.90;;;;;;7283403;32;20524;-58
2023/09/23 13:39:12;;;;;;;6.20;0.90;;;17.50;99.90;;;;;;7298952;32;20130;-57
2023/09/23 13:43:14;;;;;;;3.80;0.93;;;17.40;99.90;;;;;;7298499;32;20108;-56
2023/09/23 13:47:17;;;;;;;4.22;1.05;;;17.60;99.90;;;;;;7308550;32;20559;-55
2023/09/23 13:51:19;;;;;;;3.28;1.05;;;17.60;99.90;;;;;;7301260;32;20640;-55
2023/09/23 13:55:20;;;;;;;3.72;0.98;;;17.90;99.90;;;;;;7291006;32;20223;-55
2023/09/23 13:59:22;;;;;;;3.15;0.90;;;18.00;99.90;;;;;;7307173;32;20469;-55
2023/09/23 14:03:24;;;;;;;2.40;0.90;;;18.00;99.90;;;;;;7303279;32;20540;-55
2023/09/23 14:07:27;;;;;;;2.95;1.10;;;17.80;99.90;;;;;;7304464;32;20316;-55
2023/09/23 14:11:29;;;;;;;5.05;0.73;;;17.80;99.90;;;;;;7299390;32;21243;-55
2023/09/23 14:15:30;;;;;;;2.70;1.00;;;17.60;99.90;;;;;;7305035;32;20136;-55
2023/09/23 14:19:33;;;;;;;6.35;1.08;;;17.40;99.90;;;;;;7305438;32;20225;-53
2023/09/23 14:23:35;;;;;;;5.82;1.00;;;17.30;99.90;;;;;;7304597;32;20179;-54
2023/09/23 14:27:36;;;;;;;4.80;1.60;;;17.30;99.90;;;;;;7292572;32;20217;-58
2023/09/23 14:31:38;;;;;;;2.90;0.85;;;17.40;99.90;;;;;;7305083;32;20210;-66
2023/09/23 14:35:40;;;;;;;2.80;0.70;;;17.50;99.90;;;;;;7299281;32;20183;-66
2023/09/23 14:39:42;;;;;;;7.12;1.40;;;17.70;99.90;;;;;;7296020;32;20108;-66
2023/09/23 14:43:45;;;;;;;5.70;0.90;;;17.90;99.90;;;;;;7295255;32;20208;-67
2023/09/23 14:47:47;;;;;;;3.17;1.25;;;17.80;99.90;;;;;;7312379;32;20514;-57
2023/09/23 14:51:49;;;;;;;4.60;1.17;;;17.60;99.90;;;;;;7313041;32;20198;-57
2023/09/23 14:55:51;;;;;;;4.75;1.15;;;17.40;99.90;;;;;;7302568;32;20424;-58
2023/09/23 14:59:53;;;;;;;4.80;1.30;;;17.30;99.90;;;;;;7306362;32;20169;-58
2023/09/23 15:03:56;;;;;;;2.12;0.57;;;17.10;99.90;;;;;;7301571;32;20131;-59
2023/09/23 15:07:58;;;;;;;2.17;0.70;;;17.00;99.90;;;;;;7307499;32;20124;-57
2023/09/23 15:12:00;;;;;;;17.73;2.85;;;17.00;99.90;;;;;;7304176;32;20128;-58
2023/09/23 15:16:02;;;;;;;11.32;2.35;;;16.90;99.90;;;;;;7271568;32;20112;-57
2023/09/23 15:20:05;;;;;;;5.62;1.00;;;16.80;99.90;;;;;;7299749;32;20104;-57
2023/09/23 15:24:07;;;;;;;5.65;1.52;;;16.80;99.90;;;;;;7299856;32;20134;-57
2023/09/23 15:28:09;;;;;;;3.87;1.00;;;16.70;99.90;;;;;;7303909;32;20647;-58
2023/09/23 15:32:11;;;;;;;14.87;5.00;;;16.60;99.90;;;;;;7300943;32;20435;-57
2023/09/23 15:36:13;;;;;;;2.87;1.27;;;16.50;99.90;;;;;;7312338;32;20138;-58
2023/09/23 15:40:16;;;;;;;6.12;2.08;;;16.40;99.90;;;;;;7304145;32;20112;-59
2023/09/23 15:44:18;;;;;;;10.23;2.00;;;16.40;99.90;;;;;;7305789;32;20137;-58
2023/09/23 15:48:20;;;;;;;3.65;0.57;;;16.20;99.90;;;;;;7305457;32;20145;-58
2023/09/23 15:52:21;;;;;;;3.50;1.17;;;16.10;99.90;;;;;;7304405;32;20538;-57
2023/09/23 15:56:24;;;;;;;6.75;1.75;;;16.00;99.90;;;;;;7300318;32;20218;-56
2023/09/23 16:00:26;;;;;;;4.93;1.00;;;16.00;99.90;;;;;;7305748;32;20130;-58
2023/09/23 16:04:28;;;;;;;4.00;0.80;;;15.80;99.90;;;;;;7303213;32;20775;-57
2023/09/23 16:08:30;;;;;;;4.30;0.60;;;15.60;99.90;;;;;;7304935;32;20920;-58
2023/09/23 16:12:32;;;;;;;4.78;0.93;;;15.60;99.90;;;;;;7297940;32;20438;-56
2023/09/23 16:16:33;;;;;;;28.15;2.15;;;15.60;99.90;;;;;;7307110;32;20564;-56
2023/09/23 16:20:37;;;;;;;6.22;0.90;;;15.50;99.90;;;;;;7301206;32;20189;-57
2023/09/23 16:24:39;;;;;;;2.45;0.40;;;15.40;99.90;;;;;;7301281;32;20191;-57
2023/09/23 16:28:41;;;;;;;3.35;0.62;;;15.50;99.90;;;;;;7308927;32;20186;-57
2023/09/23 16:32:42;;;;;;;2.33;0.60;;;15.40;99.90;;;;;;7306861;32;20445;-58
2023/09/23 16:36:44;;;;;;;2.00;0.70;;;15.40;99.90;;;;;;7309964;32;20116;-58
2023/09/23 16:40:46;;;;;;;2.78;0.77;;;15.40;99.90;;;;;;7314334;32;20119;-56
2023/09/23 16:44:48;;;;;;;3.17;0.80;;;15.30;99.90;;;;;;7293181;32;20768;-58
2023/09/23 16:48:50;;;;;;;2.30;0.80;;;15.20;99.90;;;;;;7302918;32;20258;-57
2023/09/23 16:52:53;;;;;;;1.70;0.70;;;15.30;99.90;;;;;;7301226;32;20226;-56
2023/09/23 16:56:54;;;;;;;3.80;0.90;;;15.30;99.90;;;;;;7304837;32;20138;-57
2023/09/23 17:00:56;;;;;;;3.87;0.95;;;15.30;99.90;;;;;;7299554;32;20222;-57
2023/09/23 17:04:58;;;;;;;4.90;1.37;;;15.30;99.90;;;;;;7301869;32;20195;-58
2023/09/23 17:09:02;;;;;;;4.00;0.85;;;15.30;99.90;;;;;;7313290;32;20204;-58
2023/09/23 17:13:04;;;;;;;4.40;1.17;;;15.30;99.90;;;;;;7299121;32;20111;-57
2023/09/23 17:17:05;;;;;;;3.30;1.27;;;15.20;99.90;;;;;;7295382;32;20225;-57
2023/09/23 17:21:08;;;;;;;7.75;1.12;;;15.10;99.90;;;;;;7301262;32;20559;-58
2023/09/23 17:25:10;;;;;;;2.78;1.02;;;15.10;99.90;;;;;;7300389;32;20644;-56
2023/09/23 17:29:12;;;;;;;2.62;0.90;;;15.10;99.90;;;;;;7299485;32;20117;-57
2023/09/23 17:33:14;;;;;;;3.67;1.08;;;15.10;99.90;;;;;;7298950;32;20182;-58
2023/09/23 17:37:16;;;;;;;3.95;1.27;;;15.10;99.90;;;;;;7304070;32;20270;-56
2023/09/23 17:41:18;;;;;;;5.85;1.15;;;15.00;99.90;;;;;;7304673;32;20211;-57
2023/09/23 17:45:19;;;;;;;3.87;1.27;;;14.90;99.90;;;;;;7301058;32;20220;-56
2023/09/23 17:49:21;;;;;;;2.87;1.30;;;15.00;99.90;;;;;;7303401;32;20123;-57
2023/09/23 17:53:23;;;;;;;2.25;1.05;;;15.00;99.90;;;;;;7305148;32;20161;-57
2023/09/23 17:57:27;;;;;;;4.10;1.33;;;15.00;99.90;;;;;;7303549;32;20199;-56
2023/09/23 18:01:29;;;;;;;3.25;1.30;;;15.00;99.90;;;;;;7300584;32;20557;-55
2023/09/23 18:05:30;;;;;;;2.42;1.08;;;14.90;99.90;;;;;;7296777;32;20218;-56
2023/09/23 18:09:32;;;;;;;2.12;1.00;;;14.80;99.90;;;;;;7304531;32;20516;-56
2023/09/23 18:13:34;;;;;;;4.50;1.23;;;14.70;99.90;;;;;;7296860;32;20506;-56
2023/09/23 18:17:36;;;;;;;3.87;1.35;;;14.60;99.90;;;;;;7302790;32;20142;-57
2023/09/23 18:21:37;;;;;;;3.30;1.40;;;14.60;99.90;;;;;;7298003;32;20107;-56
2023/09/23 18:25:42;;;;;;;6.10;1.60;;;14.60;99.90;;;;;;7297127;32;20127;-56
2023/09/23 18:29:44;;;;;;;3.95;1.30;;;14.40;99.90;;;;;;7296323;32;20284;-57
2023/09/23 18:33:46;;;;;;;5.45;1.80;;;14.20;99.90;;;;;;7302905;32;20116;-57
2023/09/23 18:37:48;;;;;;;3.72;1.60;;;14.20;99.90;;;;;;7303621;32;20124;-58
2023/09/23 18:41:50;;;;;;;5.28;1.67;;;14.10;99.90;;;;;;7307227;32;20213;-57
2023/09/23 18:45:53;;;;;;;6.12;1.65;;;14.00;99.90;;;;;;7301368;32;20108;-57
2023/09/23 18:49:54;;;;;;;3.67;1.50;;;14.00;99.90;;;;;;7305601;32;20150;-58
2023/09/23 18:53:56;;;;;;;4.62;1.67;;;14.00;99.90;;;;;;7305444;32;20134;-57
2023/09/23 18:57:58;;;;;;;4.20;1.52;;;13.90;99.90;;;;;;7307046;32;20130;-58
2023/09/23 19:02:00;;;;;;;3.72;1.73;;;13.90;99.90;;;;;;7305048;32;20104;-56
2023/09/23 19:06:02;;;;;;;5.07;2.10;;;13.90;99.90;;;;;;7312760;32;20131;-57
2023/09/23 19:10:07;;;;;;;6.97;2.00;;;13.90;99.90;;;;;;7306289;32;20238;-57
2023/09/23 19:14:10;;;;;;;4.25;1.80;;;13.90;99.90;;;;;;7303420;32;20120;-57
2023/09/23 19:18:12;;;;;;;3.45;1.70;;;13.90;99.90;;;;;;7301106;32;20204;-57
2023/09/23 19:22:14;;;;;;;4.20;2.40;;;13.90;99.90;;;;;;7297942;32;20612;-57
2023/09/23 19:26:16;;;;;;;4.30;1.85;;;14.00;99.90;;;;;;7298706;32;20158;-56
2023/09/23 19:30:18;;;;;;;7.72;2.25;;;13.90;99.90;;;;;;7309468;32;20107;-57
2023/09/23 19:34:19;;;;;;;5.70;2.20;;;13.90;99.90;;;;;;7302359;32;20219;-57
2023/09/23 19:38:21;;;;;;;4.65;1.95;;;13.90;99.90;;;;;;7315554;32;20237;-56
2023/09/23 19:42:25;;;;;;;5.95;1.98;;;13.90;99.90;;;;;;7309941;32;20137;-57
2023/09/23 19:46:26;;;;;;;5.65;2.20;;;14.00;99.90;;;;;;7306198;32;20120;-57
2023/09/23 19:50:28;;;;;;;5.87;2.10;;;13.90;99.90;;;;;;7308477;32;20115;-57
2023/09/23 19:54:33;;;;;;;6.00;2.10;;;13.70;99.90;;;;;;7311614;32;20179;-58
2023/09/23 19:58:34;;;;;;;4.12;2.17;;;13.70;99.90;;;;;;7303522;32;20104;-58
2023/09/23 20:02:36;;;;;;;4.35;2.15;;;13.70;99.90;;;;;;7310420;32;20187;-56
2023/09/23 20:06:38;;;;;;;4.53;2.35;;;13.70;99.90;;;;;;7302798;32;20553;-57
2023/09/23 20:10:41;;;;;;;3.75;2.00;;;13.70;99.90;;;;;;7307979;32;20258;-56
2023/09/23 20:14:42;;;;;;;5.05;2.37;;;13.60;99.90;;;;;;7304816;32;20337;-56
2023/09/23 20:18:45;;;;;;;3.55;1.83;;;13.60;99.90;;;;;;7293551;32;20169;-58
2023/09/23 20:22:47;;;;;;;4.80;2.00;;;13.50;99.90;;;;;;7297979;32;20100;-58
2023/09/23 20:26:52;;;;;;;3.87;1.80;;;13.50;99.90;;;;;;7297043;32;20143;-57
2023/09/23 20:30:57;;;;;;;3.85;1.98;;;13.40;99.90;;;;;;7297878;32;20140;-57
2023/09/23 20:35:00;;;;;;;5.12;2.25;;;13.30;99.90;;;;;;7293920;32;20116;-57
2023/09/23 20:39:01;;;;;;;4.10;2.30;;;13.30;99.90;;;;;;7303731;32;20643;-57
2023/09/23 20:43:04;;;;;;;7.30;2.40;;;13.20;99.90;;;;;;7298916;32;20236;-56
2023/09/23 20:47:05;;;;;;;4.78;2.58;;;13.10;99.90;;;;;;7301761;32;20116;-57
2023/09/23 20:51:09;;;;;;;4.35;2.90;;;13.00;99.90;;;;;;7296198;32;20136;-56
2023/09/23 20:55:11;;;;;;;8.38;3.30;;;13.00;99.90;;;;;;7300197;32;20225;-57
2023/09/23 20:59:13;;;;;;;3.60;2.47;;;12.90;99.90;;;;;;7297296;32;20131;-56
2023/09/23 21:03:15;;;;;;;5.55;2.50;;;12.80;99.90;;;;;;7296972;32;20237;-56